Time;durP1;ratioP1;P1;durP2;ratioP2;P2;SDS_P1;SDS_P2;PMS_P1;PMS_P2;Temp;Humidity;BMP_temperature;BMP_pressure;BME280_temperature;BME280_humidity;BME280_pressure;Samples;Min_cycle;Max_cycle;Signal;HPM_P1;HPM_P2
2022/07/12 00:02:39;;;;;;;9.80;7.20;;;;;;;11.16;81.59;98081.69;10377019;28;20112;-55
2022/07/12 00:07:38;;;;;;;9.60;6.75;;;;;;;11.10;82.48;98086.88;10377555;28;20525;-55
2022/07/12 00:12:38;;;;;;;9.95;8.10;;;;;;;11.09;81.77;98085.16;10376747;28;20064;-55
2022/07/12 00:17:38;;;;;;;12.82;9.13;;;;;;;11.04;81.46;98080.81;10376159;28;20440;-55
2022/07/12 00:22:37;;;;;;;12.38;9.60;;;;;;;11.02;81.77;98073.88;10377072;28;20526;-55
2022/07/12 00:27:36;;;;;;;14.65;9.93;;;;;;;11.01;81.46;98082.50;10374210;28;20535;-55
2022/07/12 00:32:35;;;;;;;12.18;9.65;;;;;;;10.93;81.54;98077.31;10372051;28;20408;-55
2022/07/12 00:37:33;;;;;;;12.50;8.90;;;;;;;10.86;82.19;98075.53;10373070;28;20045;-55
2022/07/12 00:42:32;;;;;;;12.13;9.23;;;;;;;10.85;82.07;98081.59;10372403;28;20404;-55
2022/07/12 00:47:40;;;;;;;11.38;9.38;;;;;;;10.81;82.65;98072.06;10372098;28;20112;-55
2022/07/12 00:52:39;;;;;;;10.98;8.68;;;;;;;10.66;83.27;98059.91;10372621;28;20081;-55
2022/07/12 00:57:47;;;;;;;9.73;8.43;;;;;;;10.56;84.56;98078.88;10371361;28;20069;-55
2022/07/12 01:02:47;;;;;;;10.38;8.07;;;;;;;10.44;84.80;98077.09;10370891;28;20068;-55
2022/07/12 01:07:46;;;;;;;11.15;8.32;;;;;;;10.36;84.84;98077.06;10372651;28;20512;-55
2022/07/12 01:12:45;;;;;;;10.38;8.73;;;;;;;10.31;84.80;98072.72;10371855;28;20053;-55
2022/07/12 01:17:44;;;;;;;14.50;8.98;;;;;;;10.31;84.77;98077.91;10371389;28;20076;-54
2022/07/12 01:22:57;;;;;;;;;;;;;;;10.24;84.77;98081.31;10372886;28;20492;-55
2022/07/12 01:27:57;;;;;;;13.75;9.73;;;;;;;10.22;84.51;98073.53;10371380;28;20399;-55
2022/07/12 01:32:58;;;;;;;11.20;9.65;;;;;;;10.23;84.92;98079.56;10371345;28;20061;-54
2022/07/12 01:37:57;;;;;;;11.43;9.70;;;;;;;10.22;85.12;98075.25;10371914;28;20081;-55
2022/07/12 01:42:57;;;;;;;12.60;9.10;;;;;;;10.14;85.12;98072.59;10370893;28;20500;-55
2022/07/12 01:47:58;;;;;;;;;;;;;;;10.04;85.67;98078.59;10372263;28;20064;-54
2022/07/12 01:52:57;;;;;;;11.35;8.32;;;;;;;9.92;86.52;98076.81;10371984;28;20041;-55
2022/07/12 01:57:56;;;;;;;9.10;7.72;;;;;;;9.72;87.29;98082.72;10371684;28;20469;-55
2022/07/12 02:02:55;;;;;;;13.77;7.80;;;;;;;9.57;87.72;98074.81;10370700;28;20021;-54
2022/07/12 02:07:54;;;;;;;9.18;7.68;;;;;;;9.45;87.17;98069.53;10375813;28;20535;-54
2022/07/12 02:12:53;;;;;;;;;;;;;;;9.37;87.63;98069.44;10379144;28;20075;-54
2022/07/12 02:17:52;;;;;;;10.35;8.18;;;;;;;9.39;87.31;98066.88;10377638;28;19913;-55
2022/07/12 02:22:51;;;;;;;11.90;8.43;;;;;;;9.39;87.16;98061.69;10378103;28;20046;-54
2022/07/12 02:27:50;;;;;;;10.95;9.63;;;;;;;9.41;87.57;98065.19;10379884;28;20047;-55
2022/07/12 02:32:49;;;;;;;13.27;9.88;;;;;;;9.42;87.25;98061.72;10380627;28;20036;-55
2022/07/12 02:37:48;;;;;;;13.80;8.98;;;;;;;9.48;87.41;98062.63;10380608;28;20060;-55
2022/07/12 02:42:48;;;;;;;12.07;9.38;;;;;;;9.52;87.38;98068.72;10381348;28;20456;-55
2022/07/12 02:47:47;;;;;;;14.30;9.18;;;;;;;9.53;87.36;98070.47;10379913;28;20048;-54
2022/07/12 02:52:46;;;;;;;11.82;8.90;;;;;;;9.45;87.26;98073.00;10380020;28;20047;-54
2022/07/12 02:57:45;;;;;;;11.73;8.32;;;;;;;9.33;88.44;98081.53;10380102;28;20064;-54
2022/07/12 03:02:44;;;;;;;12.18;9.40;;;;;;;9.32;87.93;98077.22;10379757;28;20537;-55
2022/07/12 03:07:43;;;;;;;12.10;8.50;;;;;;;9.33;88.14;98078.94;10379408;28;20498;-55
2022/07/12 03:12:42;;;;;;;11.45;8.80;;;;;;;9.38;88.17;98086.75;10379447;28;20110;-54
2022/07/12 03:17:42;;;;;;;12.10;8.45;;;;;;;9.43;87.96;98084.19;10378178;28;20065;-55
2022/07/12 03:22:42;;;;;;;11.50;8.35;;;;;;;9.36;87.95;98091.03;10379100;28;20075;-54
2022/07/12 03:27:41;;;;;;;12.02;9.07;;;;;;;9.30;87.88;98090.97;10377045;28;20429;-55
2022/07/12 03:32:40;;;;;;;12.45;8.98;;;;;;;9.34;88.13;98106.56;10374671;28;20060;-54
2022/07/12 03:37:50;;;;;;;15.20;8.95;;;;;;;9.39;88.16;98103.16;10374677;28;20539;-55
2022/07/12 03:42:51;;;;;;;11.70;9.25;;;;;;;9.50;87.87;98104.13;10374843;28;20064;-55
2022/07/12 03:47:50;;;;;;;14.35;9.38;;;;;;;9.63;87.73;98108.56;10374482;28;20432;-55
2022/07/12 03:52:50;;;;;;;11.27;8.30;;;;;;;9.69;87.20;98107.72;10374372;28;20087;-55
2022/07/12 03:57:49;;;;;;;10.80;7.90;;;;;;;9.62;87.36;98101.63;10374223;28;20070;-54
2022/07/12 04:02:48;;;;;;;9.35;7.13;;;;;;;9.65;87.59;98101.66;10373689;28;20032;-54
2022/07/12 04:07:47;;;;;;;10.90;8.07;;;;;;;9.68;87.03;98112.06;10373442;28;20116;-55
2022/07/12 04:12:46;;;;;;;12.73;8.50;;;;;;;9.65;87.32;98117.22;10374072;28;20128;-55
2022/07/12 04:17:45;;;;;;;14.25;7.93;;;;;;;9.64;87.89;98118.06;10373008;28;20068;-55
2022/07/12 04:22:44;;;;;;;13.20;8.32;;;;;;;9.75;87.65;98126.78;10373104;28;20057;-55
2022/07/12 04:27:43;;;;;;;12.63;7.97;;;;;;;9.88;86.61;98130.34;10373111;28;20133;-54
2022/07/12 04:32:42;;;;;;;12.48;8.30;;;;;;;10.02;86.94;98142.53;10371707;28;20480;-55
2022/07/12 04:37:41;;;;;;;11.52;8.50;;;;;;;10.24;86.18;98139.25;10372410;28;20674;-54
2022/07/12 04:42:40;;;;;;;;;;;;;;;10.44;85.52;98141.94;10371482;28;20064;-55
2022/07/12 04:47:39;;;;;;;13.15;8.95;;;;;;;10.59;85.67;98139.44;10372176;28;19909;-55
2022/07/12 04:52:38;;;;;;;12.15;7.97;;;;;;;10.70;86.87;98149.00;10366910;28;20033;-54
2022/07/12 04:57:37;;;;;;;10.05;7.82;;;;;;;10.90;85.63;98141.34;10370936;28;20029;-55
2022/07/12 05:02:36;;;;;;;10.30;8.00;;;;;;;11.13;84.92;98138.84;10370864;28;20029;-55
2022/07/12 05:07:35;;;;;;;;;;;;;;;11.38;84.71;98139.75;10356859;28;20060;-55
2022/07/12 05:12:35;;;;;;;12.98;8.00;;;;;;;11.63;84.32;98141.50;10372154;28;19995;-55
2022/07/12 05:17:34;;;;;;;11.80;7.55;;;;;;;11.86;83.18;98146.72;10372029;28;20064;-55
2022/07/12 05:22:33;;;;;;;13.52;7.57;;;;;;;12.04;82.13;98143.28;10368965;28;20033;-55
2022/07/12 05:27:32;;;;;;;11.32;6.90;;;;;;;12.20;81.39;98146.69;10369630;28;20047;-55
2022/07/12 05:32:31;;;;;;;9.75;7.32;;;;;;;12.52;80.54;98138.00;10365144;28;20025;-55
2022/07/12 05:37:30;;;;;;;11.25;7.03;;;;;;;12.79;79.60;98136.19;10368651;28;20076;-55
2022/07/12 05:42:29;;;;;;;9.65;7.03;;;;;;;13.00;78.03;98133.50;10371398;28;20029;-55
2022/07/12 05:47:28;;;;;;;8.88;6.32;;;;;;;13.09;76.76;98132.56;10376478;28;20033;-55
2022/07/12 05:57:44;;;;;;;7.70;5.72;;;;;;;13.59;74.99;98131.47;10377961;28;20075;-55
2022/07/12 06:02:43;;;;;;;8.98;6.28;;;;;;;13.85;73.65;98130.41;10377776;28;20108;-55
2022/07/12 06:07:42;;;;;;;11.32;6.55;;;;;;;14.14;72.81;98124.91;10374873;28;20500;-55
2022/07/12 06:12:41;;;;;;;10.30;5.82;;;;;;;14.36;71.56;98123.84;10375480;28;20495;-55
2022/07/12 06:17:40;;;;;;;6.80;5.30;;;;;;;14.73;71.76;98123.47;10373648;28;20452;-55
2022/07/12 06:22:39;;;;;;;9.50;5.18;;;;;;;15.14;71.30;98121.22;10373973;28;20113;-55
2022/07/12 06:27:39;;;;;;;11.30;5.05;;;;;;;15.45;69.55;98114.63;10374393;28;20116;-55
2022/07/12 06:32:38;;;;;;;16.08;6.30;;;;;;;15.76;67.47;98114.16;10373863;28;20068;-55
2022/07/12 06:37:36;;;;;;;;;;;;;;;15.95;63.84;98112.19;10374571;28;20132;-56
2022/07/12 06:42:35;;;;;;;11.35;4.72;;;;;;;16.17;63.75;98110.03;10374254;28;19952;-56
2022/07/12 06:47:35;;;;;;;6.68;4.20;;;;;;;16.56;63.45;98104.97;10374032;28;20079;-56
2022/07/12 06:52:35;;;;;;;6.50;4.22;;;;;;;16.88;59.69;98098.22;10373782;28;20061;-56
2022/07/12 06:57:34;;;;;;;8.93;3.15;;;;;;;17.20;54.83;98102.78;10374264;28;20163;-56
2022/07/12 07:02:33;;;;;;;4.63;3.00;;;;;;;17.45;54.29;98105.72;10374606;28;20068;-56
2022/07/12 07:07:33;;;;;;;3.58;2.53;;;;;;;17.76;52.06;98103.25;10376375;28;20037;-56
2022/07/12 07:12:32;;;;;;;6.00;2.17;;;;;;;18.07;50.05;98104.25;10376553;28;20065;-55
2022/07/12 07:17:31;;;;;;;5.43;2.20;;;;;;;18.24;48.17;98101.19;10374184;28;20036;-56
2022/07/12 07:22:30;;;;;;;5.05;2.20;;;;;;;18.51;48.19;98105.72;10373888;28;20021;-56
2022/07/12 07:27:29;;;;;;;2.88;2.10;;;;;;;18.77;46.50;98102.38;10372917;28;20044;-56
2022/07/12 07:32:28;;;;;;;12.40;6.80;;;;;;;19.11;42.54;98096.16;10378076;28;20369;-56
2022/07/12 07:37:26;;;;;;;4.90;1.80;;;;;;;19.13;42.48;98101.34;10377613;28;20041;-56
2022/07/12 07:42:25;;;;;;;3.85;1.95;;;;;;;19.38;41.99;98096.22;10378965;28;20075;-56
2022/07/12 07:47:24;;;;;;;7.82;3.25;;;;;;;19.43;39.94;98099.56;10376720;28;20049;-56
2022/07/12 07:52:23;;;;;;;4.75;1.95;;;;;;;19.65;39.58;98090.09;10377919;28;20021;-56
2022/07/12 07:57:22;;;;;;;4.75;2.35;;;;;;;20.03;39.76;98085.34;10376256;28;20491;-56
2022/07/12 08:02:21;;;;;;;4.00;1.67;;;;;;;20.34;38.45;98076.38;10377057;28;20056;-56
2022/07/12 08:07:20;;;;;;;2.35;1.50;;;;;;;20.81;38.55;98078.22;10378021;28;20067;-56
2022/07/12 08:12:19;;;;;;;4.93;1.77;;;;;;;20.97;38.56;98075.88;10378362;28;20036;-56
2022/07/12 08:17:18;;;;;;;6.05;2.03;;;;;;;21.01;37.80;98082.75;10378116;28;20088;-56
2022/07/12 08:22:17;;;;;;;4.68;1.67;;;;;;;20.65;37.17;98076.16;10374808;28;20048;-56
2022/07/12 08:27:16;;;;;;;7.75;1.83;;;;;;;20.45;37.78;98081.31;10357089;28;20040;-56
2022/07/12 08:32:15;;;;;;;4.38;2.08;;;;;;;20.22;38.17;98077.66;10371033;28;20503;-56
2022/07/12 08:37:14;;;;;;;2.53;1.48;;;;;;;20.32;37.71;98072.06;10372754;28;20378;-56
2022/07/12 08:42:18;;;;;;;3.75;1.58;;;;;;;20.60;37.63;98054.38;10372556;28;20137;-56
2022/07/12 08:47:17;;;;;;;3.90;2.00;;;;;;;20.96;35.36;98053.03;10374746;28;20072;-56
2022/07/12 08:52:27;;;;;;;4.18;1.75;;;;;;;21.23;34.43;98051.16;10358938;28;20116;-56
2022/07/12 08:57:30;;;;;;;2.88;1.60;;;;;;;21.49;35.72;98043.03;10374524;28;20060;-56
2022/07/12 09:02:43;;;;;;;6.78;1.80;;;;;;;21.86;34.14;98040.69;10374119;28;20057;-56
2022/07/12 09:07:43;;;;;;;4.63;1.52;;;;;;;21.72;33.85;98041.25;10373955;28;20068;-56
2022/07/12 09:12:43;;;;;;;3.95;1.63;;;;;;;21.94;35.35;98050.00;10374191;28;20507;-56
2022/07/12 09:18:12;;;;;;;5.15;1.38;;;;;;;22.01;31.82;98055.06;10379513;28;20070;-56
2022/07/12 09:23:11;;;;;;;;;;;;;;;22.06;30.42;98042.50;10382797;28;20060;-56
2022/07/12 09:28:11;;;;;;;3.73;1.53;;;;;;;22.22;30.95;98043.56;10382118;28;19916;-56
2022/07/12 09:38:28;;;;;;;3.25;1.73;;;;;;;21.84;32.58;98039.88;10382222;28;20080;-56
2022/07/12 09:43:27;;;;;;;6.20;2.10;;;;;;;22.20;33.40;98041.91;10381582;28;20060;-56
2022/07/12 09:48:28;;;;;;;3.28;1.60;;;;;;;22.09;31.40;98045.03;10381376;28;20530;-56
2022/07/12 09:53:35;;;;;;;5.90;1.90;;;;;;;22.09;31.73;98037.94;10380866;28;20068;-56
2022/07/12 09:58:52;;;;;;;3.85;1.50;;;;;;;21.93;32.30;98050.06;10380236;28;20075;-56
2022/07/12 10:03:52;;;;;;;2.45;2.00;;;;;;;22.02;32.81;98038.28;10381327;28;20057;-56
2022/07/12 10:08:51;;;;;;;5.93;1.73;;;;;;;22.62;32.56;98036.50;10380702;28;20061;-56
2022/07/12 10:13:51;;;;;;;3.40;1.67;;;;;;;23.22;32.48;98031.94;10380762;28;20065;-56
2022/07/12 10:19:31;;;;;;;4.60;1.70;;;;;;;23.08;32.43;98031.75;10380698;28;20506;-56
2022/07/12 10:24:32;;;;;;;2.55;1.50;;;;;;;23.30;31.31;98022.78;10380161;28;20075;-56
2022/07/12 10:29:31;;;;;;;3.60;1.75;;;;;;;23.14;32.20;98014.72;10383071;28;20065;-57
2022/07/12 10:34:30;;;;;;;8.30;1.70;;;;;;;22.99;30.42;98021.59;10382564;28;20029;-57
2022/07/12 10:39:29;;;;;;;4.32;1.58;;;;;;;22.82;32.95;98010.97;10382159;28;20057;-54
2022/07/12 10:44:38;;;;;;;4.18;1.67;;;;;;;22.55;32.25;98014.78;10382295;28;20074;-55
2022/07/12 10:49:37;;;;;;;;;;;;;;;22.85;33.04;98011.66;10382549;28;20456;-56
2022/07/12 10:54:41;;;;;;;3.33;1.77;;;;;;;22.91;31.80;98011.38;10381286;28;20340;-56
2022/07/12 10:59:41;;;;;;;1.63;1.48;;;;;;;23.25;31.63;98014.22;10381645;28;20303;-55
2022/07/12 11:04:47;;;;;;;3.63;1.50;;;;;;;23.68;31.79;97990.91;10382340;28;20060;-55
2022/07/12 11:09:52;;;;;;;3.83;1.38;;;;;;;23.58;29.86;98002.00;10381998;28;20064;-55
2022/07/12 11:14:51;;;;;;;2.08;1.50;;;;;;;23.40;31.66;98010.84;10381162;28;20466;-55
2022/07/12 11:20:06;;;;;;;2.60;1.38;;;;;;;23.02;31.47;98011.75;10381268;28;20075;-55
2022/07/12 11:25:07;;;;;;;6.10;1.50;;;;;;;22.99;32.87;98008.38;10380440;28;20048;-55
2022/07/12 11:30:08;;;;;;;1.75;1.25;;;;;;;23.28;32.09;98000.81;10377061;28;20060;-55
2022/07/12 11:35:25;;;;;;;4.30;1.30;;;;;;;23.53;30.71;98001.34;10377116;28;20065;-55
2022/07/12 11:40:29;;;;;;;3.70;1.58;;;;;;;23.80;31.83;98003.56;10376627;28;20088;-55
2022/07/12 11:45:30;;;;;;;3.90;1.65;;;;;;;23.89;29.93;97994.28;10376610;28;20063;-55
2022/07/12 11:50:30;;;;;;;5.15;1.60;;;;;;;24.30;30.39;97986.84;10376620;28;20064;-56
2022/07/12 11:55:29;;;;;;;3.25;1.80;;;;;;;24.36;29.62;97983.88;10376325;28;20071;-55
2022/07/12 12:00:28;;;;;;;3.70;1.88;;;;;;;24.23;30.19;97977.50;10375907;28;20071;-56
2022/07/12 12:05:27;;;;;;;1.92;1.40;;;;;;;24.16;30.05;97970.78;10375920;28;20043;-55
2022/07/12 12:10:27;;;;;;;2.90;1.58;;;;;;;24.10;30.34;97960.50;10376126;28;20053;-55
2022/07/12 12:15:29;;;;;;;4.82;1.88;;;;;;;23.80;30.72;97969.97;10376308;28;20061;-55
2022/07/12 12:20:39;;;;;;;4.43;1.55;;;;;;;23.29;31.92;97978.72;10375953;28;20056;-57
2022/07/12 12:25:38;;;;;;;4.38;1.95;;;;;;;23.22;32.78;97963.13;10373999;28;20056;-57
2022/07/12 12:30:50;;;;;;;2.83;1.80;;;;;;;23.30;32.61;97980.41;10373048;28;20064;-56
2022/07/12 12:35:49;;;;;;;2.28;1.60;;;;;;;23.62;31.97;97969.09;10372403;28;20068;-57
2022/07/12 12:40:51;;;;;;;4.25;1.90;;;;;;;24.09;30.85;97964.94;10372423;28;20037;-57
2022/07/12 12:45:53;;;;;;;2.88;1.85;;;;;;;24.49;30.86;97966.34;10372529;28;20060;-57
2022/07/12 12:50:54;;;;;;;4.20;1.80;;;;;;;24.47;29.56;97957.66;10371632;28;20471;-57
2022/07/12 12:55:54;;;;;;;2.15;1.65;;;;;;;24.00;30.01;97960.97;10372716;28;20057;-55
2022/07/12 13:00:55;;;;;;;4.53;1.60;;;;;;;24.32;31.20;97961.13;10372685;28;20124;-55
2022/07/12 13:05:54;;;;;;;4.10;1.83;;;;;;;24.74;31.27;97953.56;10372441;28;20075;-56
2022/07/12 13:16:11;;;;;;;2.40;1.83;;;;;;;24.89;29.77;97960.69;10372458;28;20060;-55
2022/07/12 13:21:10;;;;;;;2.33;1.60;;;;;;;24.66;29.89;97964.59;10372033;28;20350;-55
2022/07/12 13:26:09;;;;;;;2.60;1.70;;;;;;;24.76;30.61;97960.50;10372649;28;20099;-55
2022/07/12 13:31:08;;;;;;;2.28;1.60;;;;;;;24.78;30.15;97958.63;10375874;28;20515;-56
2022/07/12 13:36:07;;;;;;;3.42;1.60;;;;;;;24.72;29.81;97950.97;10375359;28;20112;-56
2022/07/12 13:41:06;;;;;;;3.05;1.75;;;;;;;24.81;29.83;97950.47;10375075;28;20508;-56
2022/07/12 13:46:05;;;;;;;3.47;1.85;;;;;;;24.97;30.30;97944.34;10374981;28;20103;-55
2022/07/12 13:51:04;;;;;;;7.00;1.98;;;;;;;24.99;30.42;97950.41;10375021;28;20381;-56
2022/07/12 13:56:04;;;;;;;2.92;1.48;;;;;;;24.43;29.64;97940.19;10374913;28;20053;-56
2022/07/12 14:01:03;;;;;;;4.38;2.63;;;;;;;24.34;30.17;97943.31;10375352;28;20065;-56
2022/07/12 14:06:02;;;;;;;2.85;1.60;;;;;;;24.36;31.14;97957.38;10382369;28;20021;-56
2022/07/12 14:11:00;;;;;;;2.33;1.60;;;;;;;24.21;31.39;97948.41;10382145;28;20553;-56
2022/07/12 14:15:59;;;;;;;2.30;1.70;;;;;;;24.12;31.25;97945.38;10381762;28;20047;-56
2022/07/12 14:20:58;;;;;;;2.35;1.40;;;;;;;24.33;31.20;97956.66;10381681;28;20053;-56
2022/07/12 14:25:57;;;;;;;2.47;2.00;;;;;;;24.64;30.75;97950.56;10380385;28;20122;-57
2022/07/12 14:30:57;;;;;;;4.20;2.20;;;;;;;24.90;30.59;97947.34;10376714;28;20092;-57
2022/07/12 14:35:56;;;;;;;3.45;1.73;;;;;;;24.90;29.87;97942.03;10376358;28;20469;-55
2022/07/12 14:40:55;;;;;;;4.43;2.00;;;;;;;24.65;29.55;97931.88;10377453;28;20108;-56
2022/07/12 14:45:53;;;;;;;2.85;1.58;;;;;;;24.26;30.54;97940.22;10376971;28;20021;-56
2022/07/12 14:50:52;;;;;;;2.17;1.60;;;;;;;24.21;30.60;97939.63;10377037;28;20522;-56
2022/07/12 14:55:51;;;;;;;3.28;2.00;;;;;;;23.87;30.92;97941.38;10376671;28;20055;-57
2022/07/12 15:00:50;;;;;;;3.40;2.00;;;;;;;23.79;31.83;97946.19;10376313;28;20037;-56
2022/07/12 15:05:49;;;;;;;1.85;1.67;;;;;;;23.26;32.43;97947.94;10375837;28;20056;-56
2022/07/12 15:10:48;;;;;;;3.72;2.53;;;;;;;23.17;33.08;97945.75;10375632;28;20029;-56
2022/07/12 15:15:47;;;;;;;2.63;1.80;;;;;;;23.06;33.01;97946.25;10375247;28;20488;-56
2022/07/12 15:20:46;;;;;;;3.45;2.10;;;;;;;23.20;32.64;97942.94;10374989;28;20556;-56
2022/07/12 15:25:45;;;;;;;4.13;2.58;;;;;;;23.22;32.53;97949.88;10375922;28;20491;-56
2022/07/12 15:30:44;;;;;;;4.35;1.65;;;;;;;23.32;32.67;97947.63;10373999;28;20065;-56
2022/07/12 15:35:43;;;;;;;4.47;2.70;;;;;;;23.44;32.32;97946.16;10374805;28;20027;-56
2022/07/12 15:40:43;;;;;;;2.50;1.88;;;;;;;23.17;32.13;97943.97;10374719;28;20427;-56
2022/07/12 15:45:42;;;;;;;4.15;1.92;;;;;;;23.07;31.82;97948.00;10374809;28;20057;-56
2022/07/12 15:50:41;;;;;;;3.47;1.55;;;;;;;23.17;32.39;97943.97;10374180;28;20039;-56
2022/07/12 15:55:40;;;;;;;3.00;1.70;;;;;;;23.13;32.40;97936.25;10374118;28;20044;-56
2022/07/12 16:00:39;;;;;;;3.17;1.88;;;;;;;23.04;32.33;97948.13;10374926;28;20068;-56
2022/07/12 16:05:38;;;;;;;5.45;2.97;;;;;;;22.84;33.43;97950.91;10373494;28;20064;-56
2022/07/12 16:10:37;;;;;;;4.30;2.22;;;;;;;22.76;33.04;97954.75;10373927;28;20056;-56
2022/07/12 16:15:36;;;;;;;2.88;1.95;;;;;;;22.63;33.25;97947.44;10373499;28;20090;-56
2022/07/12 16:20:36;;;;;;;4.35;2.30;;;;;;;22.65;33.88;97942.91;10373532;28;20072;-56
2022/07/12 16:25:35;;;;;;;3.22;2.30;;;;;;;22.61;33.60;97952.78;10372519;28;20064;-56
2022/07/12 16:30:34;;;;;;;4.18;2.15;;;;;;;22.64;33.91;97955.28;10373012;28;20044;-56
2022/07/12 16:35:33;;;;;;;5.55;1.70;;;;;;;22.45;33.54;97955.28;10371363;28;20099;-56
2022/07/12 16:40:32;;;;;;;5.45;1.90;;;;;;;22.46;34.42;97964.06;10372895;28;20048;-56
2022/07/12 16:45:31;;;;;;;3.38;1.90;;;;;;;22.47;34.14;97964.00;10372353;28;20446;-56
2022/07/12 16:50:30;;;;;;;2.72;2.00;;;;;;;22.41;35.01;97968.72;10372363;28;20048;-56
2022/07/12 16:55:30;;;;;;;8.88;4.00;;;;;;;22.30;35.14;97967.41;10371922;28;20059;-56
2022/07/12 17:00:29;;;;;;;4.78;2.80;;;;;;;22.06;36.52;97973.78;10371869;28;20064;-56
2022/07/12 17:05:28;;;;;;;5.25;2.40;;;;;;;22.07;36.49;97964.94;10372390;28;20075;-56
2022/07/12 17:10:27;;;;;;;4.25;2.22;;;;;;;22.09;36.83;97968.38;10371830;28;20048;-56
2022/07/12 17:15:26;;;;;;;3.70;2.38;;;;;;;22.09;37.36;97971.88;10371787;28;20436;-56
2022/07/12 17:20:25;;;;;;;5.07;2.47;;;;;;;22.04;37.50;97967.69;10370490;28;20037;-56
2022/07/12 17:25:24;;;;;;;4.22;2.40;;;;;;;22.13;37.26;97960.25;10371614;28;20499;-56
2022/07/12 17:30:23;;;;;;;4.90;2.40;;;;;;;22.17;37.08;97964.44;10371497;28;20076;-56
2022/07/12 17:35:23;;;;;;;2.85;2.25;;;;;;;22.07;36.38;97979.00;10371960;28;20029;-56
2022/07/12 17:40:22;;;;;;;6.13;2.08;;;;;;;22.01;38.90;97979.28;10379282;28;20084;-56
2022/07/12 17:45:22;;;;;;;4.05;2.55;;;;;;;21.67;39.14;97985.13;10379520;28;20056;-56
2022/07/12 17:50:21;;;;;;;5.50;2.72;;;;;;;21.43;39.86;97971.16;10379736;28;20084;-56
2022/07/12 17:55:20;;;;;;;4.90;2.40;;;;;;;21.29;41.11;97984.94;10380178;28;20486;-56
2022/07/12 18:00:19;;;;;;;9.05;2.90;;;;;;;21.05;42.13;97984.09;10379359;28;20377;-56
2022/07/12 18:05:20;;;;;;;6.00;3.10;;;;;;;20.74;42.87;97984.44;10378614;28;20119;-56
2022/07/12 18:10:19;;;;;;;6.20;2.95;;;;;;;20.48;43.62;97994.19;10378667;28;20079;-56
2022/07/12 18:15:18;;;;;;;7.28;2.80;;;;;;;20.26;44.12;98002.00;10378345;28;20036;-55
2022/07/12 18:20:17;;;;;;;4.65;2.80;;;;;;;20.05;45.39;98001.00;10372129;28;20337;-55
2022/07/12 18:25:16;;;;;;;5.95;3.45;;;;;;;19.83;46.35;98009.63;10376745;28;20029;-55
2022/07/12 18:30:15;;;;;;;6.78;3.10;;;;;;;19.60;46.62;98013.06;10381516;28;20029;-56
2022/07/12 18:35:15;;;;;;;5.93;3.08;;;;;;;19.40;46.71;98015.44;10378974;28;20064;-56
2022/07/12 18:40:14;;;;;;;6.28;3.53;;;;;;;19.19;47.10;98024.88;10380628;28;20087;-56
2022/07/12 18:45:13;;;;;;;6.18;2.97;;;;;;;18.95;46.89;98031.78;10381768;28;20550;-56
2022/07/12 18:50:12;;;;;;;5.80;2.67;;;;;;;18.72;46.91;98035.94;10379269;28;20041;-56
2022/07/12 18:55:11;;;;;;;7.40;2.70;;;;;;;18.52;47.45;98044.34;10380620;28;20029;-56
2022/07/12 19:00:11;;;;;;;6.93;3.00;;;;;;;18.33;47.28;98053.66;10380588;28;20051;-56
2022/07/12 19:05:10;;;;;;;3.28;2.40;;;;;;;18.16;47.46;98049.72;10379687;28;20063;-56
2022/07/12 19:10:09;;;;;;;5.18;3.25;;;;;;;17.97;47.84;98057.22;10380668;28;20083;-56
2022/07/12 19:15:09;;;;;;;6.47;2.80;;;;;;;17.79;48.02;98064.72;10379731;28;20072;-56
2022/07/12 19:20:08;;;;;;;4.95;2.63;;;;;;;17.62;48.44;98065.97;10378562;28;20057;-56
2022/07/12 19:25:07;;;;;;;2.58;2.38;;;;;;;17.43;48.89;98070.78;10379355;28;20069;-56
2022/07/12 19:30:07;;;;;;;4.18;2.78;;;;;;;17.26;49.16;98067.66;10374823;28;20109;-56
2022/07/12 19:35:06;;;;;;;5.68;2.70;;;;;;;17.08;49.83;98074.22;10374881;28;20060;-56
2022/07/12 19:40:06;;;;;;;3.22;2.42;;;;;;;16.79;50.32;98078.25;10374768;28;20084;-56
2022/07/12 19:45:06;;;;;;;4.63;2.53;;;;;;;16.65;50.80;98083.81;10375014;28;20056;-56
2022/07/12 19:50:05;;;;;;;6.10;3.15;;;;;;;16.47;52.24;98082.41;10373546;28;20550;-56
2022/07/12 19:55:05;;;;;;;8.30;3.78;;;;;;;16.29;53.06;98083.63;10374716;28;20482;-56
2022/07/12 20:00:06;;;;;;;7.53;3.35;;;;;;;16.19;54.33;98091.69;10374037;28;20087;-56
2022/07/12 20:05:05;;;;;;;5.88;3.28;;;;;;;16.05;54.56;98094.56;10372132;28;20083;-56
2022/07/12 20:10:05;;;;;;;3.47;2.67;;;;;;;15.90;54.35;98089.56;10374538;28;20065;-56
2022/07/12 20:15:05;;;;;;;5.93;3.20;;;;;;;15.83;54.08;98089.69;10373860;28;20083;-56
2022/07/12 20:20:06;;;;;;;5.13;2.85;;;;;;;15.77;53.28;98094.13;10373102;28;20461;-56
2022/07/12 20:25:06;;;;;;;3.88;2.80;;;;;;;15.72;53.31;98095.97;10373621;28;20123;-56
2022/07/12 20:30:06;;;;;;;4.85;2.75;;;;;;;15.66;53.41;98102.13;10363237;28;20073;-56
2022/07/12 20:35:05;;;;;;;5.70;3.42;;;;;;;15.57;53.10;98102.28;10331985;28;20076;-60
2022/07/12 20:40:04;;;;;;;5.47;2.67;;;;;;;15.53;53.70;98101.47;10332803;28;20504;-55
2022/07/12 20:45:04;;;;;;;5.88;3.55;;;;;;;15.42;54.47;98109.47;10333949;28;20065;-56
2022/07/12 20:50:03;;;;;;;8.43;5.25;;;;;;;15.34;57.34;98105.22;10331523;28;20063;-56
2022/07/12 20:55:03;;;;;;;7.43;4.65;;;;;;;15.08;61.79;98116.91;10331822;28;20065;-55
2022/07/12 21:00:04;;;;;;;9.20;4.18;;;;;;;14.89;61.84;98104.97;10331332;28;20964;-56
2022/07/12 21:05:04;;;;;;;5.15;3.50;;;;;;;14.61;63.12;98098.28;10330972;28;20065;-56
2022/07/12 21:10:04;;;;;;;8.35;4.10;;;;;;;14.58;63.70;98113.16;10331593;28;20076;-56
2022/07/12 21:15:03;;;;;;;6.57;4.18;;;;;;;14.45;64.21;98111.53;10338337;28;20065;-55
2022/07/12 21:20:02;;;;;;;7.95;4.65;;;;;;;14.38;64.85;98105.53;10367368;28;20464;-55
2022/07/12 21:25:02;;;;;;;8.52;4.45;;;;;;;14.25;65.09;98101.31;10380873;28;20063;-56
2022/07/12 21:30:01;;;;;;;10.07;5.57;;;;;;;14.22;65.09;98112.66;10380466;28;20063;-55
2022/07/12 21:35:00;;;;;;;5.97;4.53;;;;;;;14.17;65.78;98119.66;10380054;28;20028;-55
2022/07/12 21:39:59;;;;;;;7.63;5.10;;;;;;;14.12;66.34;98124.06;10379594;28;20115;-55
2022/07/12 21:44:58;;;;;;;6.53;4.13;;;;;;;13.95;67.37;98122.47;10379585;28;20128;-55
2022/07/12 21:49:58;;;;;;;5.85;4.80;;;;;;;13.87;67.67;98119.06;10379480;28;20083;-55
2022/07/12 21:54:56;;;;;;;5.75;4.03;;;;;;;13.74;68.98;98126.13;10380041;28;20476;-55
2022/07/12 21:59:56;;;;;;;6.40;4.05;;;;;;;13.67;68.93;98123.56;10378617;28;20424;-56
2022/07/12 22:04:55;;;;;;;10.52;6.13;;;;;;;13.55;69.60;98124.53;10378837;28;20060;-55
2022/07/12 22:09:54;;;;;;;5.60;4.57;;;;;;;13.49;69.60;98117.59;10377904;28;20032;-55
2022/07/12 22:14:52;;;;;;;7.10;5.10;;;;;;;13.43;70.37;98119.38;10378696;28;20124;-55
2022/07/12 22:19:51;;;;;;;8.35;5.38;;;;;;;13.33;70.80;98126.38;10376659;28;20040;-56
2022/07/12 22:24:50;;;;;;;8.35;4.80;;;;;;;13.29;70.88;98109.88;10375895;28;20128;-55
2022/07/12 22:29:49;;;;;;;7.03;5.93;;;;;;;13.30;70.52;98113.34;10377569;28;20029;-55
2022/07/12 22:34:48;;;;;;;5.80;4.38;;;;;;;13.24;71.49;98111.66;10377388;28;20044;-55
2022/07/12 22:39:47;;;;;;;8.80;4.60;;;;;;;13.22;72.18;98108.19;10377322;28;20134;-55
2022/07/12 22:44:46;;;;;;;9.82;5.03;;;;;;;13.07;72.73;98109.16;10377365;28;20192;-55
2022/07/12 22:49:45;;;;;;;7.75;5.53;;;;;;;12.99;72.85;98095.28;10377018;28;20120;-55
2022/07/12 22:54:44;;;;;;;10.40;5.97;;;;;;;12.90;73.35;98113.56;10377255;28;20099;-55
2022/07/12 22:59:43;;;;;;;9.82;6.80;;;;;;;12.87;73.57;98105.78;10376763;28;20028;-55
2022/07/12 23:04:42;;;;;;;10.10;6.28;;;;;;;12.76;74.89;98111.03;10376728;28;20111;-55
2022/07/12 23:09:41;;;;;;;9.30;5.60;;;;;;;12.74;74.40;98115.38;10377867;28;20040;-55
2022/07/12 23:14:41;;;;;;;7.72;5.47;;;;;;;12.69;74.32;98123.19;10376266;28;20041;-55
2022/07/12 23:19:39;;;;;;;10.00;5.57;;;;;;;12.62;74.56;98115.41;10376111;28;20064;-55
2022/07/12 23:24:38;;;;;;;7.25;5.35;;;;;;;12.52;74.59;98098.97;10375930;28;20052;-55
2022/07/12 23:29:37;;;;;;;9.75;5.82;;;;;;;12.39;76.29;98124.19;10378693;28;20099;-55
2022/07/12 23:34:36;;;;;;;8.35;4.75;;;;;;;12.35;76.33;98119.84;10378114;28;20094;-55